Richmond Hill, New York
Current Conditions -  °F | °C
As of 5:51 PM on Thursday 18 Dec 2014 (Local Time) from KJFK Reporting Station
Scattered Clouds Scattered Clouds  
Wind Chill: 32°   Ceiling: Unl
Heat Index: 40°   Visibility: 10mi
Dew Point: 24°   Wind: 14mph
Humidity: 53%   Direction: 300°WNW
Pressure: 29.97"   Gusts: 21mph
Location:  40.7°N, 73.83°W
Report Text: KJFK 182251Z 30012G18KT 10SM SCT037 04/M04 A2997 RMK AO2 SLP148 T00441044 $
Loading
Personal Weather Stations






























Interactive Weather Map New forecast layout! Learn more

10-Day Weather Forecast

Advertisements
Track Severe Weather on mobile